createdAt,value
2018-04-22T00:00:10.324Z,14.54
2018-04-22T00:01:10.337Z,14.44
2018-04-22T00:02:10.342Z,14.38
2018-04-22T00:03:10.357Z,14.43
2018-04-22T00:04:10.374Z,14.29
2018-04-22T00:05:10.402Z,14.24
2018-04-22T00:06:10.397Z,14.28
2018-04-22T00:07:10.436Z,14.39
2018-04-22T00:08:10.413Z,14.37
2018-04-22T00:09:10.429Z,14.32
2018-04-22T00:10:10.473Z,14.29
2018-04-22T00:11:10.447Z,14.28
2018-04-22T00:12:10.462Z,14.29
2018-04-22T00:13:10.472Z,14.32
2018-04-22T00:14:10.485Z,14.20
2018-04-22T00:15:10.496Z,14.19
2018-04-22T00:16:10.515Z,14.28
2018-04-22T00:17:10.521Z,14.27
2018-04-22T00:18:10.573Z,14.32
2018-04-22T00:19:10.543Z,14.24
2018-04-22T00:20:10.553Z,14.31
2018-04-22T00:21:10.606Z,14.25
2018-04-22T00:22:10.584Z,14.29
2018-04-22T00:23:10.586Z,14.17
2018-04-22T00:24:10.635Z,14.16
2018-04-22T00:25:10.616Z,14.04
2018-04-22T00:26:10.623Z,14.02
2018-04-22T00:27:10.636Z,13.98
2018-04-22T00:28:10.644Z,13.99
2018-04-22T00:29:10.657Z,13.98
2018-04-22T00:30:10.696Z,13.95
2018-04-22T00:31:10.680Z,13.99
2018-04-22T00:32:10.694Z,13.98
2018-04-22T00:33:10.702Z,13.98
2018-04-22T00:34:10.713Z,13.99
2018-04-22T00:35:10.725Z,13.98
2018-04-22T00:36:10.739Z,14.01
2018-04-22T00:37:10.748Z,14.04
2018-04-22T00:38:10.762Z,14.02
2018-04-22T00:39:10.772Z,13.95
2018-04-22T00:40:10.786Z,14.01
2018-04-22T00:41:10.793Z,13.92
2018-04-22T00:42:10.804Z,13.70
2018-04-22T00:43:10.818Z,13.73
2018-04-22T00:44:10.836Z,13.79
2018-04-22T00:45:10.840Z,13.74
2018-04-22T00:46:10.849Z,13.67
2018-04-22T00:47:10.864Z,13.62
2018-04-22T00:48:10.919Z,13.56
2018-04-22T00:49:10.884Z,13.61
2018-04-22T00:50:10.908Z,13.61
2018-04-22T00:51:10.914Z,13.46
2018-04-22T00:52:10.921Z,13.54
2018-04-22T00:53:10.930Z,13.41
2018-04-22T00:54:10.947Z,13.37
2018-04-22T00:55:10.956Z,13.46
2018-04-22T00:56:10.968Z,13.41
2018-04-22T00:57:10.976Z,13.46
2018-04-22T00:58:10.989Z,13.52
2018-04-22T00:59:10.999Z,13.51
2018-04-22T01:00:11.015Z,13.55
2018-04-22T01:01:11.022Z,13.51
2018-04-22T01:02:11.038Z,13.56
2018-04-22T01:03:11.048Z,13.49
2018-04-22T01:04:11.059Z,13.59
2018-04-22T01:05:11.065Z,13.56
2018-04-22T01:06:11.078Z,13.61
2018-04-22T01:07:11.089Z,13.58
2018-04-22T01:08:11.098Z,13.41
2018-04-22T01:09:11.128Z,13.52
2018-04-22T01:10:11.123Z,13.44
2018-04-22T01:11:11.136Z,13.52
2018-04-22T01:12:11.146Z,13.54
2018-04-22T01:13:11.161Z,13.46
2018-04-22T01:14:11.167Z,13.47
2018-04-22T01:15:11.175Z,13.38
2018-04-22T01:16:11.199Z,13.37
2018-04-22T01:17:11.200Z,13.41
2018-04-22T01:18:11.229Z,13.40
2018-04-22T01:19:11.222Z,13.38
2018-04-22T01:20:11.233Z,13.27
2018-04-22T01:21:11.254Z,13.21
2018-04-22T01:22:11.262Z,13.24
2018-04-22T01:23:11.267Z,13.15
2018-04-22T01:24:11.281Z,13.20
2018-04-22T01:25:11.291Z,13.25
2018-04-22T01:26:11.306Z,13.18
2018-04-22T01:27:11.312Z,13.25
2018-04-22T01:28:11.332Z,13.15
2018-04-22T01:29:11.339Z,13.11
2018-04-22T01:30:11.348Z,13.09
2018-04-22T01:31:11.365Z,13.20
2018-04-22T01:32:11.372Z,13.21
2018-04-22T01:33:11.388Z,13.15
2018-04-22T01:34:11.393Z,13.12
2018-04-22T01:35:11.403Z,13.09
2018-04-22T01:36:11.413Z,12.97
2018-04-22T01:37:11.426Z,12.89
2018-04-22T01:38:11.435Z,12.96
2018-04-22T01:39:11.447Z,12.89
2018-04-22T01:40:11.462Z,12.99
2018-04-22T01:41:11.477Z,12.95
2018-04-22T01:42:11.489Z,12.87
2018-04-22T01:43:11.493Z,12.95
2018-04-22T01:44:11.506Z,12.97
2018-04-22T01:45:11.517Z,12.97
2018-04-22T01:46:11.526Z,12.95
2018-04-22T01:47:11.537Z,13.02
2018-04-22T01:48:11.568Z,13.02
2018-04-22T01:49:11.559Z,12.93
2018-04-22T01:50:11.569Z,12.87
2018-04-22T01:51:11.584Z,12.85
2018-04-22T01:52:11.592Z,12.89
2018-04-22T01:53:11.603Z,12.87
2018-04-22T01:54:11.618Z,12.97
2018-04-22T01:55:11.624Z,12.93
2018-04-22T01:56:11.637Z,12.88
2018-04-22T01:57:11.646Z,12.89
2018-04-22T01:58:11.656Z,12.93
2018-04-22T01:59:11.668Z,12.95
2018-04-22T02:00:11.687Z,12.85
2018-04-22T02:01:11.694Z,12.85
2018-04-22T02:02:11.710Z,12.84
2018-04-22T02:03:11.721Z,12.84
2018-04-22T02:04:11.720Z,12.92
2018-04-22T02:05:11.733Z,12.88
2018-04-22T02:06:11.746Z,12.96
2018-04-22T02:07:11.761Z,12.95
2018-04-22T02:08:11.765Z,12.89
2018-04-22T02:09:11.774Z,12.96
2018-04-22T02:10:11.787Z,12.97
2018-04-22T02:11:11.796Z,12.97
2018-04-22T02:12:11.807Z,12.96
2018-04-22T02:13:11.822Z,12.85
2018-04-22T02:14:11.828Z,12.79
2018-04-22T02:15:11.844Z,12.95
2018-04-22T02:16:11.857Z,12.79
2018-04-22T02:17:11.864Z,12.79
2018-04-22T02:18:11.874Z,12.85
2018-04-22T02:19:11.915Z,12.85
2018-04-22T02:20:11.899Z,12.87
2018-04-22T02:21:11.907Z,12.92
2018-04-22T02:22:11.918Z,12.84
2018-04-22T02:23:11.924Z,12.70
2018-04-22T02:24:11.937Z,12.74
2018-04-22T02:25:11.959Z,12.71
2018-04-22T02:26:11.972Z,12.77
2018-04-22T02:27:11.985Z,12.59
2018-04-22T02:28:11.979Z,12.67
2018-04-22T02:29:11.995Z,12.74
2018-04-22T02:30:12.009Z,12.71
2018-04-22T02:31:12.016Z,12.64
2018-04-22T02:32:12.039Z,12.67
2018-04-22T02:33:12.041Z,12.69
2018-04-22T02:34:12.046Z,12.63
2018-04-22T02:35:12.055Z,12.59
2018-04-22T02:36:12.100Z,12.54
2018-04-22T02:37:12.080Z,12.54
2018-04-22T02:38:12.088Z,12.42
2018-04-22T02:39:12.105Z,12.57
2018-04-22T02:40:12.114Z,12.52
2018-04-22T02:41:12.118Z,12.48
2018-04-22T02:42:12.131Z,12.45
2018-04-22T02:43:12.140Z,12.49
2018-04-22T02:44:12.150Z,12.48
2018-04-22T02:45:12.168Z,12.51
2018-04-22T02:46:12.177Z,12.52
2018-04-22T02:47:12.186Z,12.45
2018-04-22T02:48:12.194Z,12.45
2018-04-22T02:49:12.206Z,12.52
2018-04-22T02:50:12.218Z,12.42
2018-04-22T02:51:12.222Z,12.42
2018-04-22T02:52:12.241Z,12.52
2018-04-22T02:53:12.252Z,12.42
2018-04-22T02:54:12.256Z,12.46
2018-04-22T02:55:12.266Z,12.38
2018-04-22T02:56:12.278Z,12.37
2018-04-22T02:57:12.302Z,12.38
2018-04-22T02:58:12.299Z,12.38
2018-04-22T02:59:12.326Z,12.39
2018-04-22T03:00:12.322Z,12.27
2018-04-22T03:01:12.332Z,12.30
2018-04-22T03:02:12.340Z,12.21
2018-04-22T03:03:12.351Z,12.20
2018-04-22T03:04:12.364Z,12.23
2018-04-22T03:05:12.383Z,12.21
2018-04-22T03:06:12.384Z,12.16
2018-04-22T03:07:12.393Z,12.11
2018-04-22T03:08:12.406Z,12.19
2018-04-22T03:09:12.434Z,12.19
2018-04-22T03:10:12.437Z,12.11
2018-04-22T03:11:12.437Z,12.05
2018-04-22T03:12:12.447Z,11.99
2018-04-22T03:13:12.455Z,11.99
2018-04-22T03:14:12.465Z,12.02
2018-04-22T03:15:12.476Z,11.87
2018-04-22T03:16:12.496Z,11.89
2018-04-22T03:17:12.519Z,11.89
2018-04-22T03:18:12.510Z,11.93
2018-04-22T03:19:12.519Z,12.01
2018-04-22T03:20:12.531Z,11.99
2018-04-22T03:21:12.542Z,11.78
2018-04-22T03:22:12.569Z,11.77
2018-04-22T03:23:12.565Z,11.64
2018-04-22T03:24:12.575Z,11.43
2018-04-22T03:25:12.586Z,11.54
2018-04-22T03:26:12.591Z,11.54
2018-04-22T03:27:12.606Z,11.43
2018-04-22T03:28:12.619Z,11.38
2018-04-22T03:29:12.624Z,11.53
2018-04-22T03:30:12.635Z,11.49
2018-04-22T03:31:12.654Z,11.50
2018-04-22T03:32:12.656Z,11.56
2018-04-22T03:33:12.702Z,11.68
2018-04-22T03:34:12.675Z,11.72
2018-04-22T03:35:12.695Z,11.74
2018-04-22T03:36:12.706Z,11.78
2018-04-22T03:37:12.708Z,11.67
2018-04-22T03:38:12.720Z,11.70
2018-04-22T03:39:12.727Z,11.83
2018-04-22T03:40:12.743Z,11.78
2018-04-22T03:41:12.753Z,11.89
2018-04-22T03:42:12.762Z,11.85
2018-04-22T03:43:12.775Z,11.86
2018-04-22T03:44:12.782Z,11.87
2018-04-22T03:45:12.793Z,12.04
2018-04-22T03:46:12.804Z,11.99
2018-04-22T03:47:12.813Z,12.01
2018-04-22T03:48:12.824Z,12.02
2018-04-22T03:49:12.839Z,12.09
2018-04-22T03:50:12.844Z,12.01
2018-04-22T03:51:12.863Z,12.04
2018-04-22T03:52:12.864Z,12.08
2018-04-22T03:53:12.877Z,12.08
2018-04-22T03:54:12.895Z,12.01
2018-04-22T03:55:12.896Z,12.02
2018-04-22T03:56:12.910Z,12.01
2018-04-22T03:57:12.925Z,12.08
2018-04-22T03:58:12.927Z,11.99
2018-04-22T03:59:12.939Z,11.87
2018-04-22T04:00:12.947Z,11.82
2018-04-22T04:01:12.986Z,11.74
2018-04-22T04:02:12.971Z,11.72
2018-04-22T04:03:12.993Z,11.68
2018-04-22T04:04:12.989Z,11.70
2018-04-22T04:05:13.000Z,11.71
2018-04-22T04:06:13.024Z,11.74
2018-04-22T04:07:13.022Z,11.89
2018-04-22T04:08:13.035Z,11.83
2018-04-22T04:09:13.043Z,11.89
2018-04-22T04:10:13.062Z,11.82
2018-04-22T04:11:13.064Z,11.83
2018-04-22T04:12:13.076Z,11.85
2018-04-22T04:13:13.085Z,11.82
2018-04-22T04:14:13.094Z,11.86
2018-04-22T04:15:13.114Z,11.80
2018-04-22T04:16:13.122Z,11.89
2018-04-22T04:17:13.125Z,11.83
2018-04-22T04:18:13.135Z,11.82
2018-04-22T04:19:13.149Z,11.86
2018-04-22T04:20:13.162Z,11.87
2018-04-22T04:21:13.167Z,11.77
2018-04-22T04:22:13.202Z,11.71
2018-04-22T04:23:13.189Z,11.71
2018-04-22T04:24:13.198Z,11.75
2018-04-22T04:25:13.211Z,11.68
2018-04-22T04:26:13.220Z,11.72
2018-04-22T04:27:13.227Z,11.68
2018-04-22T04:28:13.243Z,11.68
2018-04-22T04:29:13.256Z,11.65
2018-04-22T04:30:13.265Z,11.62
2018-04-22T04:31:13.271Z,11.53
2018-04-22T04:32:13.289Z,11.59
2018-04-22T04:33:13.291Z,11.54
2018-04-22T04:34:13.302Z,11.57
2018-04-22T04:35:13.314Z,11.50
2018-04-22T04:36:13.319Z,11.46
2018-04-22T04:37:13.336Z,11.47
2018-04-22T04:38:13.341Z,11.53
2018-04-22T04:39:13.350Z,11.50
2018-04-22T04:40:13.368Z,11.65
2018-04-22T04:41:13.402Z,11.70
2018-04-22T04:42:13.380Z,11.74
2018-04-22T04:43:13.393Z,11.71
2018-04-22T04:44:13.403Z,11.74
2018-04-22T04:45:13.425Z,11.75
2018-04-22T04:46:13.428Z,11.64
2018-04-22T04:47:13.436Z,11.64
2018-04-22T04:48:13.447Z,11.72
2018-04-22T04:49:13.458Z,11.77
2018-04-22T04:50:13.466Z,11.72
2018-04-22T04:51:13.471Z,11.77
2018-04-22T04:52:13.486Z,11.68
2018-04-22T04:53:13.510Z,11.65
2018-04-22T04:54:13.520Z,11.68
2018-04-22T04:55:13.520Z,11.70
2018-04-22T04:56:13.526Z,11.77
2018-04-22T04:57:13.542Z,11.77
2018-04-22T04:58:13.553Z,11.77
2018-04-22T04:59:13.559Z,11.77
2018-04-22T05:00:13.610Z,11.71
2018-04-22T05:01:13.577Z,11.75
2018-04-22T05:02:13.588Z,11.77
2018-04-22T05:03:13.599Z,11.72
2018-04-22T05:04:13.608Z,11.71
2018-04-22T05:05:13.622Z,11.62
2018-04-22T05:06:13.631Z,11.67
2018-04-22T05:07:13.635Z,11.47
2018-04-22T05:08:13.657Z,11.41
2018-04-22T05:09:13.662Z,11.47
2018-04-22T05:10:13.671Z,11.52
2018-04-22T05:11:13.682Z,11.59
2018-04-22T05:12:13.689Z,11.68
2018-04-22T05:13:13.697Z,11.68
2018-04-22T05:14:13.717Z,11.78
2018-04-22T05:15:13.718Z,11.83
2018-04-22T05:16:13.733Z,11.78
2018-04-22T05:17:13.742Z,11.99
2018-04-22T05:18:13.755Z,12.09
2018-04-22T05:19:13.759Z,12.11
2018-04-22T05:20:13.771Z,12.08
2018-04-22T05:21:13.791Z,12.16
2018-04-22T05:22:13.791Z,12.11
2018-04-22T05:23:13.803Z,12.23
2018-04-22T05:24:13.814Z,12.15
2018-04-22T05:25:13.827Z,12.23
2018-04-22T05:26:13.832Z,12.26
2018-04-22T05:27:13.869Z,12.16
2018-04-22T05:28:13.855Z,12.19
2018-04-22T05:29:13.865Z,12.21
2018-04-22T05:30:13.879Z,12.16
2018-04-22T05:31:13.937Z,12.12
2018-04-22T05:32:13.899Z,12.08
2018-04-22T05:33:13.905Z,12.09
2018-04-22T05:34:13.929Z,11.96
2018-04-22T05:35:13.929Z,12.11
2018-04-22T05:36:13.936Z,12.08
2018-04-22T05:37:13.948Z,11.97
2018-04-22T05:38:13.955Z,12.02
2018-04-22T05:39:13.976Z,12.02
2018-04-22T05:40:13.985Z,12.08
2018-04-22T05:41:13.991Z,12.08
2018-04-22T05:42:13.998Z,12.09
2018-04-22T05:43:14.013Z,12.08
2018-04-22T05:44:14.069Z,12.11
2018-04-22T05:45:14.035Z,12.09
2018-04-22T05:46:14.039Z,12.21
2018-04-22T05:47:14.062Z,12.13
2018-04-22T05:48:14.063Z,12.15
2018-04-22T05:49:14.072Z,12.12
2018-04-22T05:50:14.085Z,12.23
2018-04-22T05:51:14.098Z,12.12
2018-04-22T05:52:14.105Z,12.16
2018-04-22T05:53:14.128Z,12.26
2018-04-22T05:54:14.126Z,12.31
2018-04-22T05:55:14.136Z,12.27
2018-04-22T05:56:14.148Z,12.30
2018-04-22T05:57:14.158Z,12.30
2018-04-22T05:58:14.165Z,12.34
2018-04-22T05:59:14.177Z,12.44
2018-04-22T06:00:14.201Z,12.39
2018-04-22T06:01:14.200Z,12.38
2018-04-22T06:02:14.234Z,12.42
2018-04-22T06:03:14.235Z,12.44
2018-04-22T06:04:14.229Z,12.42
2018-04-22T06:05:14.244Z,12.62
2018-04-22T06:06:14.256Z,12.59
2018-04-22T06:07:14.261Z,12.59
2018-04-22T06:08:14.279Z,12.66
2018-04-22T06:09:14.289Z,12.66
2018-04-22T06:10:14.298Z,12.66
2018-04-22T06:11:14.309Z,12.79
2018-04-22T06:12:14.329Z,12.84
2018-04-22T06:13:14.324Z,12.88
2018-04-22T06:14:14.335Z,12.95
2018-04-22T06:15:14.350Z,13.00
2018-04-22T06:16:14.357Z,12.97
2018-04-22T06:17:14.486Z,13.02
2018-04-22T06:18:14.972Z,13.12
2018-04-22T06:19:14.522Z,13.21
2018-04-22T06:20:17.428Z,13.12
2018-04-22T06:21:15.824Z,13.30
2018-04-22T06:22:14.429Z,13.40
2018-04-22T06:23:14.433Z,13.43
2018-04-22T06:24:14.455Z,13.52
2018-04-22T06:25:14.459Z,13.59
2018-04-22T06:26:14.467Z,13.63
2018-04-22T06:27:14.514Z,14.13
2018-04-22T06:28:14.503Z,14.35
2018-04-22T06:29:14.498Z,14.53
2018-04-22T06:30:14.517Z,14.75
2018-04-22T06:31:14.525Z,14.91
2018-04-22T06:32:14.530Z,14.95
2018-04-22T06:33:14.544Z,15.03
2018-04-22T06:34:14.553Z,15.12
2018-04-22T06:35:14.564Z,15.23
2018-04-22T06:36:14.576Z,15.31
2018-04-22T06:37:14.597Z,15.43
2018-04-22T06:38:14.597Z,15.64
2018-04-22T06:39:14.610Z,15.70
2018-04-22T06:40:14.681Z,15.72
2018-04-22T06:41:14.633Z,15.72
2018-04-22T06:42:14.642Z,15.84
2018-04-22T06:43:14.660Z,15.93
2018-04-22T06:44:14.662Z,15.93
2018-04-22T06:45:14.679Z,16.01
2018-04-22T06:46:14.687Z,16.09
2018-04-22T06:47:14.699Z,16.12
2018-04-22T06:48:14.709Z,16.23
2018-04-22T06:49:14.725Z,16.25
2018-04-22T06:50:14.735Z,16.22
2018-04-22T06:51:14.776Z,16.34
2018-04-22T06:52:14.757Z,16.41
2018-04-22T06:53:14.817Z,16.52
2018-04-22T06:54:14.779Z,16.50
2018-04-22T06:55:14.790Z,16.56
2018-04-22T06:56:14.803Z,16.53
2018-04-22T06:57:14.812Z,16.63
2018-04-22T06:58:14.823Z,16.62
2018-04-22T06:59:14.841Z,16.78
2018-04-22T07:00:14.850Z,16.78
2018-04-22T07:01:14.855Z,16.81
2018-04-22T07:02:14.869Z,16.86
2018-04-22T07:03:14.880Z,16.85
2018-04-22T07:04:14.893Z,16.81
2018-04-22T07:05:14.921Z,16.77
2018-04-22T07:06:14.920Z,16.74
2018-04-22T07:07:14.933Z,16.67
2018-04-22T07:08:14.938Z,16.52
2018-04-22T07:09:14.953Z,16.44
2018-04-22T07:10:14.961Z,16.68
2018-04-22T07:11:14.974Z,16.75
2018-04-22T07:12:14.992Z,16.83
2018-04-22T07:13:15.004Z,16.89
2018-04-22T07:14:15.034Z,16.89
2018-04-22T07:15:15.024Z,16.88
2018-04-22T07:16:15.039Z,16.83
2018-04-22T07:17:15.048Z,16.80
2018-04-22T07:18:15.065Z,16.83
2018-04-22T07:19:15.071Z,16.88
2018-04-22T07:20:15.088Z,16.86
2018-04-22T07:21:15.095Z,17.00
2018-04-22T07:22:15.105Z,16.89
2018-04-22T07:23:15.120Z,16.98
2018-04-22T07:24:15.183Z,17.06
2018-04-22T07:25:15.141Z,17.11
2018-04-22T07:26:15.154Z,17.13
2018-04-22T07:27:15.166Z,17.11
2018-04-22T07:28:15.177Z,17.14
2018-04-22T07:29:15.189Z,17.29
2018-04-22T07:30:15.209Z,17.36
2018-04-22T07:31:15.215Z,17.38
2018-04-22T07:32:15.252Z,17.47
2018-04-22T07:33:15.243Z,17.64
2018-04-22T07:34:15.248Z,17.81
2018-04-22T07:35:15.260Z,17.82
2018-04-22T07:36:15.273Z,17.82
2018-04-22T07:37:15.286Z,17.79
2018-04-22T07:38:15.295Z,17.88
2018-04-22T07:39:15.311Z,17.97
2018-04-22T07:40:15.326Z,17.95
2018-04-22T07:41:15.339Z,17.97
2018-04-22T07:42:15.346Z,18.04
2018-04-22T07:43:15.361Z,18.07
2018-04-22T07:44:15.401Z,18.07
2018-04-22T07:45:15.385Z,18.10
2018-04-22T07:46:15.398Z,18.24
2018-04-22T07:47:15.407Z,18.25
2018-04-22T07:48:15.422Z,18.44
2018-04-22T07:49:15.436Z,18.47
2018-04-22T07:50:15.443Z,18.50
2018-04-22T07:51:15.454Z,18.55
2018-04-22T07:52:38.450Z,18.58
2018-04-22T07:53:38.444Z,18.73
2018-04-22T07:55:42.441Z,18.73
2018-04-22T07:56:42.447Z,18.94
2018-04-22T07:58:46.468Z,19.10
2018-04-22T07:59:46.456Z,19.14
2018-04-22T08:01:50.479Z,19.18
2018-04-22T08:02:50.468Z,19.21
2018-04-22T08:04:54.465Z,19.48
2018-04-22T08:05:54.476Z,19.53
2018-04-22T08:07:58.495Z,19.46
2018-04-22T08:08:58.490Z,19.58
2018-04-22T08:11:02.548Z,19.57
2018-04-22T08:12:02.512Z,19.57
2018-04-22T08:14:06.522Z,19.48
2018-04-22T08:15:06.510Z,19.61
2018-04-22T08:17:10.536Z,19.91
2018-04-22T08:18:10.522Z,19.91
2018-04-22T08:20:14.517Z,19.91
2018-04-22T08:21:14.529Z,19.95
2018-04-22T08:23:18.548Z,20.08
2018-04-22T08:24:18.536Z,20.16
2018-04-22T08:25:18.553Z,20.09
2018-04-22T08:26:18.565Z,20.18
2018-04-22T08:27:18.574Z,20.27
2018-04-22T08:28:18.594Z,20.41
2018-04-22T08:29:18.603Z,20.39
2018-04-22T08:30:18.619Z,20.46
2018-04-22T08:31:18.626Z,20.47
2018-04-22T08:32:18.646Z,20.46
2018-04-22T08:33:18.700Z,20.42
2018-04-22T08:34:18.685Z,20.42
2018-04-22T08:35:18.684Z,20.58
2018-04-22T08:36:18.693Z,20.66
2018-04-22T08:37:18.711Z,20.68
2018-04-22T08:38:18.717Z,20.66
2018-04-22T08:39:18.737Z,20.74
2018-04-22T08:40:18.747Z,20.74
2018-04-22T08:41:18.759Z,20.72
2018-04-22T08:42:18.773Z,20.76
2018-04-22T08:43:18.794Z,20.96
2018-04-22T08:44:18.800Z,20.99
2018-04-22T08:45:18.820Z,20.93
2018-04-22T08:46:18.826Z,20.99
2018-04-22T08:47:18.838Z,21.11
2018-04-22T08:48:18.853Z,21.16
2018-04-22T08:49:18.866Z,21.27
2018-04-22T08:50:18.879Z,21.34
2018-04-22T08:51:18.892Z,21.27
2018-04-22T08:52:18.909Z,21.23
2018-04-22T08:53:18.919Z,21.26
2018-04-22T08:54:18.934Z,21.24
2018-04-22T08:55:18.951Z,21.23
2018-04-22T08:56:18.962Z,21.45
2018-04-22T08:57:18.974Z,21.39
2018-04-22T08:58:18.989Z,21.38
2018-04-22T08:59:19.004Z,21.44
2018-04-22T09:00:19.024Z,21.39
2018-04-22T09:01:19.029Z,21.48
2018-04-22T09:02:19.045Z,21.59
2018-04-22T09:03:19.056Z,21.53
2018-04-22T09:04:19.074Z,21.61
2018-04-22T09:05:19.094Z,21.72
2018-04-22T09:06:19.099Z,21.69
2018-04-22T09:07:19.113Z,21.71
2018-04-22T09:08:19.130Z,21.60
2018-04-22T09:09:19.142Z,21.75
2018-04-22T09:10:19.158Z,21.72
2018-04-22T09:11:19.179Z,21.76
2018-04-22T09:12:19.184Z,21.78
2018-04-22T09:13:19.196Z,21.92
2018-04-22T09:14:19.211Z,21.88
2018-04-22T09:15:19.226Z,21.97
2018-04-22T09:16:19.286Z,21.85
2018-04-22T09:17:19.253Z,21.98
2018-04-22T09:18:19.271Z,21.90
2018-04-22T09:19:19.294Z,22.02
2018-04-22T09:20:19.316Z,22.04
2018-04-22T09:21:19.312Z,22.04
2018-04-22T09:22:19.326Z,22.09
2018-04-22T09:23:19.341Z,22.17
2018-04-22T09:24:19.357Z,22.12
2018-04-22T09:25:19.368Z,22.22
2018-04-22T09:26:19.390Z,22.22
2018-04-22T09:27:19.401Z,22.20
2018-04-22T09:28:19.411Z,22.25
2018-04-22T09:29:19.441Z,22.20
2018-04-22T09:30:19.438Z,22.34
2018-04-22T09:31:19.455Z,22.37
2018-04-22T09:32:22.252Z,22.49
2018-04-22T09:33:19.482Z,22.43
2018-04-22T09:34:19.497Z,22.50
2018-04-22T09:35:19.513Z,22.44
2018-04-22T09:36:19.525Z,22.52
2018-04-22T09:37:19.541Z,22.50
2018-04-22T09:38:19.583Z,22.52
2018-04-22T09:39:19.574Z,22.50
2018-04-22T09:40:19.585Z,22.56
2018-04-22T09:41:19.600Z,22.43
2018-04-22T09:42:19.622Z,22.59
2018-04-22T09:43:22.090Z,22.65
2018-04-22T09:44:19.742Z,22.65
2018-04-22T09:45:19.656Z,22.67
2018-04-22T09:46:19.675Z,22.72
2018-04-22T09:47:19.686Z,22.59
2018-04-22T09:48:19.698Z,22.68
2018-04-22T09:49:19.713Z,22.71
2018-04-22T09:50:19.733Z,22.78
2018-04-22T09:51:19.766Z,22.83
2018-04-22T09:52:19.759Z,22.82
2018-04-22T09:53:19.793Z,22.89
2018-04-22T09:54:19.788Z,22.87
2018-04-22T09:55:19.819Z,22.84
2018-04-22T09:56:19.817Z,22.90
2018-04-22T09:57:19.863Z,22.97
2018-04-22T09:58:19.854Z,23.07
2018-04-22T09:59:19.861Z,23.02
2018-04-22T10:00:19.874Z,23.12
2018-04-22T10:01:19.892Z,23.08
2018-04-22T10:02:19.908Z,23.20
2018-04-22T10:03:19.921Z,23.15
2018-04-22T10:04:19.938Z,23.22
2018-04-22T10:05:19.952Z,23.20
2018-04-22T10:06:19.981Z,23.19
2018-04-22T10:07:19.985Z,23.38
2018-04-22T10:08:19.997Z,23.34
2018-04-22T10:09:20.014Z,23.47
2018-04-22T10:10:20.039Z,23.47
2018-04-22T10:11:20.043Z,23.50
2018-04-22T10:12:20.053Z,23.70
2018-04-22T10:13:20.072Z,23.71
2018-04-22T10:14:20.088Z,23.62
2018-04-22T10:15:20.186Z,23.87
2018-04-22T10:16:20.130Z,23.86
2018-04-22T10:17:20.135Z,23.94
2018-04-22T10:18:20.152Z,24.00
2018-04-22T10:19:20.171Z,23.95
2018-04-22T10:20:20.179Z,23.95
2018-04-22T10:21:20.192Z,24.12
2018-04-22T10:22:20.211Z,24.10
2018-04-22T10:23:20.227Z,24.14
2018-04-22T10:24:20.240Z,24.07
2018-04-22T10:25:20.256Z,24.05
2018-04-22T10:26:20.272Z,24.07
2018-04-22T10:27:20.288Z,23.95
2018-04-22T10:28:20.302Z,24.17
2018-04-22T10:29:20.319Z,24.27
2018-04-22T10:30:20.335Z,24.31
2018-04-22T10:31:20.352Z,24.34
2018-04-22T10:32:20.364Z,24.31
2018-04-22T10:33:20.380Z,24.22
2018-04-22T10:34:20.397Z,24.24
2018-04-22T10:35:20.414Z,24.35
2018-04-22T10:36:20.438Z,24.39
2018-04-22T10:37:20.442Z,24.24
2018-04-22T10:38:20.464Z,24.34
2018-04-22T10:39:20.474Z,24.32
2018-04-22T10:40:20.498Z,24.24
2018-04-22T10:41:20.505Z,24.42
2018-04-22T10:42:20.522Z,24.41
2018-04-22T10:43:20.541Z,24.52
2018-04-22T10:44:20.553Z,24.38
2018-04-22T10:45:20.581Z,24.39
2018-04-22T10:46:20.591Z,24.49
2018-04-22T10:47:20.639Z,24.44
2018-04-22T10:48:20.625Z,24.53
2018-04-22T10:49:20.637Z,24.49
2018-04-22T10:50:20.663Z,24.53
2018-04-22T10:51:20.683Z,24.50
2018-04-22T10:52:20.685Z,24.60
2018-04-22T10:53:20.702Z,24.60
2018-04-22T10:54:20.716Z,24.73
2018-04-22T10:55:20.742Z,24.85
2018-04-22T10:56:20.755Z,25.01
2018-04-22T10:57:20.767Z,25.10
2018-04-22T10:58:20.778Z,25.19
2018-04-22T10:59:20.829Z,25.32
2018-04-22T11:00:20.812Z,25.50
2018-04-22T11:01:20.836Z,25.46
2018-04-22T11:02:20.846Z,25.75
2018-04-22T11:03:20.865Z,25.90
2018-04-22T11:04:20.874Z,26.21
2018-04-22T11:05:20.899Z,26.57
2018-04-22T11:06:20.911Z,26.92
2018-04-22T11:07:20.938Z,27.28
2018-04-22T11:08:20.950Z,27.66
2018-04-22T11:09:20.963Z,27.98
2018-04-22T11:10:20.986Z,28.21
2018-04-22T11:11:21.001Z,28.47
2018-04-22T11:12:21.022Z,28.72
2018-04-22T11:13:21.038Z,29.11
2018-04-22T11:14:21.123Z,29.13
2018-04-22T11:15:21.080Z,28.97
2018-04-22T11:16:21.110Z,29.60
2018-04-22T11:17:21.125Z,29.56
2018-04-22T11:18:21.143Z,30.19
2018-04-22T11:19:21.161Z,30.86
2018-04-22T11:20:21.226Z,30.75
2018-04-22T11:21:21.220Z,30.61
2018-04-22T11:22:21.226Z,30.72
2018-04-22T11:23:21.253Z,31.54
2018-04-22T11:24:21.296Z,31.76
2018-04-22T11:25:21.296Z,31.43
2018-04-22T11:26:21.318Z,31.79
2018-04-22T11:27:21.376Z,31.85
2018-04-22T11:28:21.368Z,31.99
2018-04-22T11:29:21.394Z,31.49
2018-04-22T11:30:21.413Z,31.96
2018-04-22T11:31:21.435Z,30.96
2018-04-22T11:32:21.460Z,31.17
2018-04-22T11:33:21.483Z,30.67
2018-04-22T11:34:21.515Z,30.19
2018-04-22T11:35:21.554Z,30.21
2018-04-22T11:36:21.553Z,29.94
2018-04-22T11:37:21.580Z,30.05
2018-04-22T11:38:21.605Z,30.23
2018-04-22T11:39:21.627Z,30.65
2018-04-22T11:40:21.671Z,30.94
2018-04-22T11:41:21.676Z,31.15
2018-04-22T11:42:21.704Z,31.23
2018-04-22T11:43:21.724Z,31.87
2018-04-22T11:44:21.765Z,32.14
2018-04-22T11:45:21.790Z,32.24
2018-04-22T11:46:21.801Z,32.30
2018-04-22T11:47:21.828Z,32.37
2018-04-22T11:48:21.861Z,32.10
2018-04-22T11:49:21.876Z,32.22
2018-04-22T11:50:21.899Z,32.98
2018-04-22T11:51:21.937Z,32.91
2018-04-22T11:52:21.955Z,33.36
2018-04-22T11:53:21.977Z,32.79
2018-04-22T11:54:22.039Z,32.86
2018-04-22T11:55:22.030Z,32.95
2018-04-22T11:56:22.053Z,33.37
2018-04-22T11:57:22.081Z,33.79
2018-04-22T11:58:22.121Z,33.73
2018-04-22T11:59:22.136Z,34.11
2018-04-22T12:00:22.164Z,34.19
2018-04-22T12:01:22.179Z,33.60
2018-04-22T12:02:22.231Z,32.15
2018-04-22T12:03:22.234Z,31.35
2018-04-22T12:04:22.262Z,31.27
2018-04-22T12:05:22.359Z,32.18
2018-04-22T12:06:22.313Z,31.45
2018-04-22T12:07:22.335Z,30.87
2018-04-22T12:08:22.361Z,30.83
2018-04-22T12:09:22.389Z,30.40
2018-04-22T12:10:22.422Z,30.47
2018-04-22T12:11:22.447Z,30.86
2018-04-22T12:12:22.469Z,30.83
2018-04-22T12:13:22.499Z,31.11
2018-04-22T12:14:22.515Z,30.99
2018-04-22T12:15:22.546Z,30.90
2018-04-22T12:16:22.571Z,30.78
2018-04-22T12:17:22.591Z,31.35
2018-04-22T12:18:22.615Z,31.09
2018-04-22T12:19:22.640Z,30.30
2018-04-22T12:20:22.663Z,30.78
2018-04-22T12:21:22.689Z,31.12
2018-04-22T12:22:22.715Z,31.27
2018-04-22T12:23:22.738Z,31.61
2018-04-22T12:24:22.761Z,31.48
2018-04-22T12:25:22.783Z,31.55
2018-04-22T12:26:22.810Z,31.28
2018-04-22T12:27:22.829Z,31.13
2018-04-22T12:28:22.856Z,31.20
2018-04-22T12:29:22.876Z,30.90
2018-04-22T12:30:22.920Z,31.15
2018-04-22T12:31:22.924Z,31.50
2018-04-22T12:32:22.945Z,31.62
2018-04-22T12:33:22.970Z,32.20
2018-04-22T12:34:22.994Z,32.20
2018-04-22T12:35:23.016Z,32.39
2018-04-22T12:36:23.049Z,32.66
2018-04-22T12:37:23.066Z,32.80
2018-04-22T12:38:23.090Z,31.57
2018-04-22T12:39:23.113Z,31.05
2018-04-22T12:40:23.134Z,30.81
2018-04-22T12:41:23.160Z,30.74
2018-04-22T12:42:23.183Z,30.67
2018-04-22T12:43:23.212Z,30.71
2018-04-22T12:44:23.235Z,30.65
2018-04-22T12:45:23.258Z,30.93
2018-04-22T12:46:23.276Z,31.57
2018-04-22T12:47:23.302Z,31.73
2018-04-22T12:48:23.341Z,31.12
2018-04-22T12:49:23.361Z,30.34
2018-04-22T12:50:23.364Z,30.37
2018-04-22T12:51:23.391Z,30.34
2018-04-22T12:52:23.415Z,30.19
2018-04-22T12:53:23.436Z,30.15
2018-04-22T12:54:23.459Z,29.96
2018-04-22T12:55:23.483Z,29.78
2018-04-22T12:56:23.501Z,29.89
2018-04-22T12:57:23.527Z,29.84
2018-04-22T12:58:23.545Z,29.99
2018-04-22T12:59:23.567Z,30.05
2018-04-22T13:00:23.593Z,30.18
2018-04-22T13:01:23.609Z,30.11
2018-04-22T13:02:23.641Z,30.14
2018-04-22T13:03:23.650Z,30.49